Terminal Aerodrome Forecast
Issued by NWS Milwaukee/Sullivan, WI

Home | Current Version | Previous Version | Text Only | Print | Product List | Glossary On
Versions: 1 2 3 4 5 6 7 8 9 10 11 12 13 14 15 16 17 18 19 20 21 22 23 24 25 26 27 28 29 30 31 32 33 34
000
FTUS43 KMKX 051427 AAA
TAFMKE
TAF AMD
KMKE 051427Z 0514/0618 01011KT P6SM SCT090
     FM052000 05006KT P6SM FEW250
     FM061300 23006KT P6SM SCT080
     FM061700 20009KT P6SM FEW250=

USA.gov is the U.S. government's official web portal to all federal, state and local government web resources and services.